Data for 01/27/2013

Time Sea-Level Adjusted Pressure Absolute Pressure Temperature Relative Humidity Dew Point   
(mb) (inHg) (mb) (inHg) (C) (F) (%) (C) (F)
00:05 1010 29.83 839 24.78 0 32.1 82 -2.8 27
00:10 1010 29.83 839 24.78 -0.2 31.7 82 -2.9 26.9
00:15 1010 29.83 839 24.78 -0.3 31.4 82 -3 26.5
00:20 1010 29.83 839 24.78 -0.4 31.3 82 -3.1 26.4
00:25 1010 29.83 839 24.78 -0.4 31.2 82 -3.2 26.3
00:30 1010 29.83 839 24.78 -0.4 31.3 82 -3.2 26.3
00:35 1010 29.83 839 24.78 -0.4 31.2 82 -3.1 26.4
00:40 1010 29.83 840 24.81 -0.4 31.2 82 -3.1 26.4
00:45 1010 29.83 840 24.81 -0.4 31.2 82 -3.1 26.4
00:50 1010 29.83 840 24.81 -0.4 31.2 82 -3.1 26.3
00:55 1010 29.83 840 24.81 -0.4 31.3 82 -3.2 26.3
01:00 1010 29.83 840 24.81 -0.4 31.3 82 -3.1 26.4
01:05 1010 29.83 840 24.81 -0.4 31.3 82 -3 26.5
01:10 1010 29.83 840 24.81 -0.3 31.4 82 -3 26.5
01:15 1011 29.85 840 24.81 -0.3 31.4 82 -3 26.6
01:20 1010 29.83 840 24.81 -0.3 31.4 82 -3 26.6
01:25 1011 29.85 840 24.81 -0.3 31.5 83 -2.9 26.8
01:30 1010 29.83 840 24.81 -0.3 31.4 83 -2.8 26.9
01:35 1011 29.85 840 24.81 -0.4 31.2 84 -2.8 26.9
01:40 1011 29.85 840 24.81 -0.4 31.2 84 -2.8 27
01:45 1011 29.85 840 24.81 -0.4 31.2 85 -2.7 27.1
01:50 1011 29.85 840 24.81 -0.5 31.2 84 -2.8 27
01:55 1011 29.85 840 24.81 -0.5 31.2 84 -2.8 27
02:00 1011 29.85 840 24.81 -0.4 31.3 85 -2.7 27.2
02:05 1011 29.85 840 24.81 -0.4 31.2 85 -2.7 27.2
02:10 1011 29.85 840 24.81 -0.5 31.2 85 -2.7 27.1
02:15 1011 29.85 840 24.81 -0.4 31.2 85 -2.7 27.1
02:20 1011 29.85 840 24.81 -0.4 31.3 85 -2.6 27.2
02:25 1011 29.85 840 24.81 -0.5 31.2 85 -2.6 27.3
02:30 1011 29.85 840 24.81 -0.6 30.9 86 -2.6 27.3
02:35 1010 29.83 840 24.81 -0.7 30.7 87 -2.6 27.3
02:40 1010 29.83 840 24.81 -0.7 30.8 87 -2.6 27.4
02:45 1010 29.83 840 24.81 -0.8 30.6 88 -2.5 27.4
02:50 1010 29.83 840 24.81 -0.8 30.5 88 -2.6 27.4
02:55 1010 29.83 840 24.81 -0.9 30.5 88 -2.5 27.4
03:00 1011 29.85 840 24.81 -0.9 30.4 89 -2.5 27.6
03:05 1011 29.85 840 24.81 -1 30.3 90 -2.4 27.6
03:10 1011 29.85 840 24.81 -1.1 30.1 91 -2.4 27.7
03:15 1011 29.85 840 24.81 -1.2 29.9 92 -2.4 27.7
03:20 1011 29.85 840 24.81 -1.3 29.6 93 -2.3 27.8
03:25 1010 29.83 840 24.81 -1.4 29.5 94 -2.3 27.9
03:30 1010 29.83 840 24.81 -1.4 29.4 94 -2.3 27.9
03:35 1011 29.85 840 24.81 -1.5 29.4 94 -2.2 28
03:40 1011 29.85 840 24.81 -1.5 29.4 95 -2.2 28
03:45 1011 29.85 840 24.81 -1.5 29.3 95 -2.2 28
03:50 1011 29.85 840 24.81 -1.5 29.3 95 -2.2 28
03:55 1011 29.85 840 24.81 -1.6 29.2 95 -2.3 27.9
04:00 1011 29.85 840 24.81 -1.6 29.1 95 -2.3 27.8
04:05 1011 29.85 840 24.81 -1.7 29 95 -2.3 27.8
04:10 1010 29.83 840 24.81 -1.7 29 95 -2.4 27.7
04:15 1010 29.83 840 24.81 -1.6 29 95 -2.4 27.8
04:20 1010 29.83 840 24.81 -1.6 29.1 95 -2.3 27.8
04:25 1010 29.83 840 24.81 -1.6 29.1 95 -2.4 27.7
04:30 1011 29.85 840 24.81 -1.6 29.1 95 -2.4 27.7
04:35 1011 29.85 840 24.81 -1.6 29.1 94 -2.4 27.6
04:40 1011 29.85 840 24.81 -1.6 29.2 94 -2.5 27.6
04:45 1011 29.85 840 24.81 -1.6 29.2 94 -2.4 27.6
04:50 1010 29.83 840 24.81 -1.6 29.2 94 -2.4 27.6
04:55 1010 29.83 840 24.81 -1.5 29.2 94 -2.4 27.6
05:00 1010 29.83 840 24.81 -1.6 29.2 94 -2.5 27.6
05:05 1010 29.83 840 24.81 -1.5 29.2 94 -2.4 27.7
05:10 1010 29.83 840 24.81 -1.5 29.3 94 -2.4 27.7
05:15 1011 29.85 840 24.81 -1.5 29.3 94 -2.4 27.7
05:20 1011 29.85 840 24.81 -1.6 29.2 94 -2.4 27.7
05:25 1011 29.85 840 24.81 -1.6 29.1 94 -2.5 27.5
05:30 1011 29.85 840 24.81 -1.7 29 94 -2.5 27.5
05:35 1011 29.85 840 24.81 -1.7 28.9 94 -2.5 27.5
05:40 1011 29.85 840 24.81 -1.7 29 94 -2.5 27.6
05:45 1011 29.85 840 24.81 -1.7 28.9 94 -2.5 27.5
05:50 1010 29.83 840 24.81 -1.7 28.9 95 -2.5 27.6
05:55 1010 29.83 840 24.81 -1.7 28.9 95 -2.4 27.6
06:00 1010 29.83 840 24.81 -1.7 28.9 95 -2.5 27.5
06:05 1010 29.83 840 24.81 -1.8 28.7 95 -2.5 27.5
06:10 1010 29.83 840 24.81 -1.8 28.7 95 -2.5 27.6
06:15 1011 29.85 840 24.81 -1.8 28.7 95 -2.5 27.5
06:20 1011 29.85 840 24.81 -1.9 28.6 95 -2.5 27.5
06:25 1011 29.85 840 24.81 -1.9 28.6 95 -2.5 27.4
06:30 1011 29.85 840 24.81 -1.9 28.6 95 -2.5 27.4
06:35 1011 29.85 840 24.81 -1.9 28.6 95 -2.5 27.4
06:40 1011 29.85 840 24.81 -1.9 28.6 96 -2.5 27.5
06:45 1011 29.85 840 24.81 -1.9 28.6 96 -2.5 27.5
06:50 1011 29.85 840 24.81 -1.8 28.7 95 -2.5 27.5
06:55 1011 29.85 840 24.81 -1.9 28.7 95 -2.5 27.5
07:00 1011 29.85 840 24.81 -1.9 28.6 96 -2.5 27.5
07:05 1011 29.85 840 24.81 -1.9 28.6 95 -2.5 27.5
07:10 1011 29.85 840 24.81 -1.9 28.6 96 -2.5 27.5
07:15 1011 29.85 840 24.81 -1.9 28.6 96 -2.5 27.5
07:20 1011 29.85 840 24.81 -1.9 28.6 96 -2.5 27.5
07:25 1011 29.85 840 24.81 -1.9 28.5 96 -2.5 27.4
07:30 1011 29.85 840 24.81 -2 28.5 96 -2.6 27.4
07:35 1011 29.85 840 24.81 -2 28.4 96 -2.6 27.4
07:40 1011 29.85 840 24.81 -2 28.5 96 -2.6 27.4
07:45 1011 29.85 840 24.81 -2 28.5 96 -2.5 27.4
07:50 1011 29.85 840 24.81 -2 28.4 96 -2.5 27.4
07:55 1011 29.85 840 24.81 -2 28.5 96 -2.5 27.4
08:00 1011 29.85 840 24.81 -2 28.5 96 -2.5 27.5
08:05 1011 29.85 840 24.81 -2 28.5 96 -2.5 27.4
08:10 1011 29.85 840 24.81 -2 28.4 96 -2.6 27.4
08:15 1011 29.85 840 24.81 -2 28.4 96 -2.6 27.4
08:20 1011 29.85 840 24.81 -2.1 28.3 96 -2.6 27.2
08:25 1011 29.85 840 24.81 -2.1 28.2 96 -2.7 27.2
08:30 1011 29.85 840 24.81 -2.1 28.2 96 -2.6 27.2
08:35 1011 29.85 840 24.81 -2.1 28.3 96 -2.6 27.3
08:40 1011 29.85 840 24.81 -2.1 28.3 96 -2.6 27.3
08:45 1011 29.85 840 24.81 -2.1 28.3 96 -2.6 27.3
08:50 1011 29.85 840 24.81 -2 28.3 96 -2.6 27.4
08:55 1011 29.85 840 24.81 -2.1 28.3 96 -2.7 27.2
09:00 1011 29.85 840 24.81 -2.3 27.9 96 -2.9 26.8
09:05 1011 29.85 840 24.81 -2.4 27.6 95 -3.2 26.3
09:10 1011 29.85 840 24.81 -2.6 27.3 95 -3.4 25.9
09:15 1011 29.85 840 24.81 -2.7 27.1 95 -3.5 25.7
09:20 1011 29.85 840 24.81 -2.7 27.1 95 -3.5 25.8
09:25 1011 29.85 840 24.81 -2.7 27.2 95 -3.4 25.9
09:30 1011 29.85 840 24.81 -2.7 27.2 95 -3.4 25.9
09:35 1011 29.85 840 24.81 -2.7 27.2 95 -3.4 25.8
09:40 1011 29.85 840 24.81 -2.7 27.2 94 -3.5 25.7
09:45 1011 29.85 840 24.81 -2.6 27.3 94 -3.5 25.8
09:50 1011 29.85 840 24.81 -2.7 27.2 94 -3.6 25.6
09:55 1011 29.85 840 24.81 -2.7 27.1 94 -3.6 25.5
10:00 1011 29.85 840 24.81 -2.7 27.1 94 -3.6 25.5
10:05 1011 29.85 840 24.81 -2.7 27.1 93 -3.6 25.4
10:10 1011 29.85 840 24.81 -2.7 27.1 93 -3.7 25.4
10:15 1011 29.85 840 24.81 -2.7 27.1 93 -3.7 25.4
10:20 1011 29.85 840 24.81 -2.7 27.2 93 -3.6 25.5
10:25 1011 29.85 840 24.81 -2.6 27.3 93 -3.6 25.6
10:30 1011 29.85 840 24.81 -2.5 27.5 93 -3.5 25.7
10:35 1011 29.85 841 24.83 -2.4 27.7 93 -3.4 25.9
10:40 1011 29.85 841 24.83 -2.3 27.9 92 -3.3 26
10:45 1011 29.85 841 24.83 -2.2 28 92 -3.3 26
10:50 1011 29.85 841 24.83 -2.2 28 92 -3.3 26.1
10:55 1011 29.85 840 24.81 -2.2 28.1 92 -3.3 26
11:00 1011 29.85 840 24.81 -2.2 28.1 92 -3.3 26.1
11:05 1011 29.85 840 24.81 -2.2 28 92 -3.3 26
11:10 1011 29.85 841 24.83 -2.1 28.2 92 -3.3 26.1
11:15 1011 29.85 841 24.83 -2 28.3 92 -3.2 26.2
11:20 1011 29.85 841 24.83 -2 28.4 91 -3.2 26.2
11:25 1012 29.88 841 24.83 -2.1 28.2 91 -3.4 25.9
11:30 1012 29.88 841 24.83 -2.1 28.2 91 -3.4 25.8
11:35 1012 29.88 841 24.83 -2.1 28.3 90 -3.6 25.6
11:40 1012 29.88 841 24.83 -2.1 28.3 88 -3.8 25.2
11:45 1012 29.88 841 24.83 -2 28.3 87 -3.8 25.1
11:50 1012 29.88 841 24.83 -1.9 28.6 87 -3.8 25.1
11:55 1012 29.88 841 24.83 -1.8 28.8 85 -4 24.8
12:00 1012 29.88 841 24.83 -1.7 29 84 -4.1 24.7
12:05 1012 29.88 841 24.83 -1.7 29 83 -4.2 24.5
12:10 1012 29.88 841 24.83 -1.7 28.9 84 -4.2 24.5
12:15 1012 29.88 841 24.83 -1.8 28.8 84 -4.1 24.6
12:20 1012 29.88 841 24.83 -1.6 29.1 82 -4.3 24.2
12:25 1012 29.88 841 24.83 -1.6 29.1 82 -4.4 24.1
12:30 1012 29.88 841 24.83 -1.7 28.9 82 -4.4 24.2
12:35 1012 29.88 841 24.83 -1.7 29 81 -4.5 23.9
12:40 1012 29.88 841 24.83 -1.8 28.8 81 -4.7 23.6
12:45 1012 29.88 841 24.83 -2 28.5 82 -4.6 23.8
12:50 1012 29.88 841 24.83 -1.9 28.5 82 -4.7 23.6
12:55 1012 29.88 841 24.83 -1.9 28.6 81 -4.8 23.4
13:00 1012 29.88 841 24.83 -2 28.4 82 -4.7 23.5
13:05 1011 29.85 841 24.83 -1.9 28.6 81 -4.8 23.3
13:10 1011 29.85 841 24.83 -1.6 29.1 78 -4.9 23.3
13:15 1011 29.85 841 24.83 -1.7 28.9 79 -4.9 23.3
13:20 1011 29.85 841 24.83 -2 28.5 78 -5.4 22.3
13:25 1011 29.85 841 24.83 -2.1 28.3 80 -5 22.9
13:30 1011 29.85 841 24.83 -1.8 28.7 78 -5.1 22.9
13:35 1011 29.85 840 24.81 -1.9 28.6 79 -5.1 22.8
13:40 1011 29.85 840 24.81 -2.1 28.1 79 -5.4 22.3
13:45 1011 29.85 840 24.81 -2.2 28.1 78 -5.5 22.1
13:50 1011 29.85 840 24.81 -2.4 27.7 78 -5.7 21.7
13:55 1011 29.85 840 24.81 -2.3 27.9 77 -5.8 21.6
14:00 1011 29.85 840 24.81 -2.2 28 77 -5.8 21.6
14:05 1011 29.85 840 24.81 -2.4 27.7 79 -5.6 22
14:10 1011 29.85 840 24.81 -2.2 28 78 -5.5 22
14:15 1011 29.85 840 24.81 -2.3 27.9 78 -5.5 22
14:20 1011 29.85 840 24.81 -2.3 27.9 78 -5.5 22
14:25 1011 29.85 840 24.81 -2.4 27.7 78 -5.7 21.8
14:30 1011 29.85 840 24.81 -2.5 27.4 78 -5.9 21.4
14:35 1011 29.85 840 24.81 -2.5 27.4 79 -5.6 21.9
14:40 1011 29.85 840 24.81 -2.5 27.5 78 -5.7 21.7
14:45 1011 29.85 840 24.81 -2.5 27.5 78 -5.8 21.6
14:50 1011 29.85 840 24.81 -2.6 27.3 80 -5.7 21.8
14:55 1011 29.85 840 24.81 -2.6 27.4 78 -5.8 21.5
15:00 1011 29.85 840 24.81 -2.1 28.2 79 -5.4 22.3
15:05 1011 29.85 840 24.81 -2.2 28.1 78 -5.6 22
15:10 1011 29.85 840 24.81 -1.9 28.6 76 -5.5 22.1
15:15 1011 29.85 840 24.81 -1.6 29 75 -5.5 22
15:20 1011 29.85 840 24.81 -1.9 28.6 76 -5.7 21.8
15:25 1011 29.85 840 24.81 -2.2 28 76 -5.8 21.6
15:30 1011 29.85 840 24.81 -2.4 27.7 76 -6 21.1
15:35 1011 29.85 840 24.81 -2.4 27.8 77 -5.9 21.3
15:40 1011 29.85 840 24.81 -1.9 28.6 73 -6.1 21
15:45 1011 29.85 840 24.81 -2.2 28.1 76 -5.8 21.6
15:50 1011 29.85 840 24.81 -2.2 28 75 -6.1 21
15:55 1011 29.85 840 24.81 -2.2 28.1 75 -6.1 21.1
16:00 1011 29.85 840 24.81 -2 28.4 74 -6 21.3
16:05 1011 29.85 840 24.81 -1.8 28.8 72 -6.2 20.8
16:10 1010 29.83 840 24.81 -2.2 28 73 -6.4 20.4
16:15 1010 29.83 840 24.81 -2.3 27.8 73 -6.5 20.2
16:20 1010 29.83 839 24.78 -2.6 27.3 72 -7 19.4
16:25 1010 29.83 839 24.78 -2.6 27.4 71 -7.2 19.1
16:30 1010 29.83 839 24.78 -2.5 27.5 72 -7 19.5
16:35 1010 29.83 840 24.81 -2.5 27.5 71 -7.1 19.3
16:40 1011 29.85 840 24.81 -2.4 27.6 69 -7.4 18.7
16:45 1011 29.85 840 24.81 -2.4 27.7 70 -7.2 19
16:50 1011 29.85 840 24.81 -2.4 27.7 69 -7.3 18.9
16:55 1011 29.85 840 24.81 -2.4 27.7 68 -7.5 18.6
17:00 1011 29.85 840 24.81 -2.4 27.7 70 -7.1 19.1
17:05 1011 29.85 840 24.81 -2.3 27.9 68 -7.3 18.8
17:10 1011 29.85 840 24.81 -2.2 28.1 65 -8 17.7
17:15 1011 29.85 840 24.81 -2.3 27.9 66 -7.9 17.9
17:20 1011 29.85 840 24.81 -2.2 28 65 -8 17.7
17:25 1011 29.85 840 24.81 -2.2 28.1 67 -7.5 18.4
17:30 1011 29.85 840 24.81 -2.1 28.2 67 -7.4 18.6
17:35 1011 29.85 840 24.81 -2.2 28.1 67 -7.5 18.5
17:40 1011 29.85 840 24.81 -2.2 28 66 -7.7 18.2
17:45 1011 29.85 840 24.81 -2.5 27.5 68 -7.7 18.1
17:50 1011 29.85 840 24.81 -2.6 27.3 67 -7.9 17.8
17:55 1011 29.85 840 24.81 -2.7 27.2 68 -7.8 18
18:00 1011 29.85 840 24.81 -2.7 27.2 66 -8.2 17.2
18:05 1011 29.85 840 24.81 -2.6 27.3 65 -8.3 17.1
18:10 1011 29.85 840 24.81 -2.7 27.1 67 -8.1 17.5
18:15 1011 29.85 840 24.81 -2.7 27.2 66 -8.1 17.4
18:20 1011 29.85 840 24.81 -2.8 26.9 65 -8.4 16.8
18:25 1011 29.85 840 24.81 -2.9 26.8 67 -8.2 17.2
18:30 1011 29.85 840 24.81 -3.1 26.5 67 -8.4 16.9
18:35 1011 29.85 840 24.81 -3.2 26.2 69 -8.2 17.2
18:40 1011 29.85 840 24.81 -3.4 25.9 69 -8.3 17.1
18:45 1011 29.85 840 24.81 -3.3 26 70 -8 17.6
18:50 1011 29.85 840 24.81 -3.6 25.5 74 -7.6 18.3
18:55 1011 29.85 840 24.81 -3.7 25.3 73 -7.9 17.8
19:00 1011 29.85 840 24.81 -3.7 25.4 73 -7.7 18.1
19:05 1011 29.85 840 24.81 -3.7 25.3 73 -7.8 18
19:10 1011 29.85 840 24.81 -3.9 25 74 -7.9 17.9
19:15 1011 29.85 840 24.81 -4 24.8 72 -8.3 17.1
19:20 1011 29.85 840 24.81 -3.8 25.2 72 -8 17.6
19:25 1011 29.85 840 24.81 -3.9 24.9 73 -8 17.6
19:30 1011 29.85 840 24.81 -4.1 24.7 73 -8.3 17.1
19:35 1011 29.85 840 24.81 -4.1 24.7 72 -8.4 16.8
19:40 1011 29.85 840 24.81 -3.9 25 74 -7.9 17.7
19:45 1011 29.85 840 24.81 -3.9 25 72 -8.2 17.2
19:50 1011 29.85 840 24.81 -3.8 25.2 71 -8.2 17.2
19:55 1011 29.85 840 24.81 -3.7 25.3 71 -8.2 17.2
20:00 1011 29.85 840 24.81 -3.8 25.2 73 -8 17.6
20:05 1011 29.85 840 24.81 -4 24.9 73 -8.1 17.5
20:10 1011 29.85 840 24.81 -4 24.9 74 -8 17.6
20:15 1011 29.85 840 24.81 -4 24.7 74 -7.9 17.7
20:20 1011 29.85 840 24.81 -4.1 24.6 76 -7.8 18
20:25 1011 29.85 840 24.81 -4.1 24.6 75 -7.8 17.9
20:30 1011 29.85 840 24.81 -4.1 24.6 76 -7.7 18.1
20:35 1011 29.85 840 24.81 -4.3 24.3 74 -8.3 17.1
20:40 1011 29.85 840 24.81 -4.3 24.3 71 -8.8 16.2
20:45 1011 29.85 840 24.81 -4.4 24 71 -8.9 16
20:50 1011 29.85 840 24.81 -4.6 23.8 72 -8.9 15.9
20:55 1011 29.85 840 24.81 -4.6 23.7 73 -8.8 16.2
21:00 1011 29.85 840 24.81 -4.6 23.7 73 -8.7 16.3
21:05 1011 29.85 840 24.81 -4.6 23.7 79 -7.7 18.1
21:10 1011 29.85 840 24.81 -4.8 23.4 80 -7.7 18.2
21:15 1011 29.85 840 24.81 -4.9 23.1 79 -8 17.5
21:20 1011 29.85 840 24.81 -5.1 22.9 79 -8.2 17.3
21:25 1011 29.85 840 24.81 -5.1 22.9 79 -8.2 17.2
21:30 1011 29.85 840 24.81 -5 23 79 -8.2 17.3
21:35 1011 29.85 840 24.81 -4.9 23.1 79 -8.1 17.4
21:40 1011 29.85 840 24.81 -4.9 23.3 77 -8.3 17.1
21:45 1011 29.85 840 24.81 -4.7 23.6 77 -8.2 17.3
21:50 1011 29.85 840 24.81 -4.6 23.7 77 -8.1 17.5
21:55 1011 29.85 840 24.81 -4.7 23.6 77 -8 17.5
22:00 1011 29.85 840 24.81 -4.7 23.6 76 -8.3 17.1
22:05 1011 29.85 840 24.81 -4.6 23.8 77 -8.1 17.4
22:10 1011 29.85 840 24.81 -4.5 24 76 -8.2 17.3
22:15 1011 29.85 840 24.81 -4.4 24.1 76 -8.1 17.4
22:20 1011 29.85 840 24.81 -4.5 23.8 78 -7.8 17.9
22:25 1011 29.85 840 24.81 -4.7 23.5 79 -7.8 17.9
22:30 1011 29.85 840 24.81 -4.8 23.3 78 -8.1 17.3
22:35 1011 29.85 840 24.81 -4.8 23.4 79 -7.9 17.8
22:40 1011 29.85 840 24.81 -4.8 23.3 80 -7.8 18
22:45 1011 29.85 840 24.81 -4.8 23.3 80 -7.8 18
22:50 1011 29.85 840 24.81 -4.9 23.2 81 -7.7 18.2
22:55 1011 29.85 840 24.81 -5 23 80 -7.9 17.8
23:00 1011 29.85 840 24.81 -4.9 23.2 78 -8.2 17.2
23:05 1011 29.85 840 24.81 -4.8 23.4 80 -7.7 18.1
23:10 1011 29.85 840 24.81 -4.9 23.2 82 -7.6 18.4
23:15 1011 29.85 841 24.83 -5.1 22.9 82 -7.8 18
23:20 1011 29.85 841 24.83 -5.1 22.8 79 -8.2 17.3
23:25 1011 29.85 841 24.83 -5 23 80 -7.9 17.7
23:30 1011 29.85 841 24.83 -4.9 23.1 78 -8.1 17.4
23:35 1011 29.85 841 24.83 -4.8 23.4 78 -8.1 17.4
23:40 1011 29.85 841 24.83 -4.7 23.6 79 -7.8 17.9
23:45 1011 29.85 841 24.83 -4.6 23.7 79 -7.8 18
23:50 1011 29.85 841 24.83 -4.6 23.8 80 -7.6 18.4
23:55 1011 29.85 841 24.83 -4.6 23.7 79 -7.7 18.1
24:00 1011 29.85 841 24.83 -4.5 23.9 79 -7.6 18.3